Time;durP1;ratioP1;P1;durP2;ratioP2;P2;SDS_P1;SDS_P2;PMS_P1;PMS_P2;Temp;Humidity;BMP_temperature;BMP_pressure;BME280_temperature;BME280_humidity;BME280_pressure;Samples;Min_cycle;Max_cycle;Signal;HPM_P1;HPM_P2
2022/06/11 00:00:30;;;;;;;6.22;5.82;;;;;;;;;;5061139;28;20103;-59
2022/06/11 00:02:57;;;;;;;6.30;5.13;;;;;;;;;;5085108;28;20513;-58
2022/06/11 00:05:22;;;;;;;6.28;5.70;;;;;;;;;;5081189;28;20016;-58
2022/06/11 00:07:48;;;;;;;5.93;5.43;;;;;;;;;;5080602;28;20705;-59
2022/06/11 00:10:13;;;;;;;6.78;6.13;;;;;;;;;;5080842;28;20024;-59
2022/06/11 00:12:38;;;;;;;8.10;5.63;;;;;;;;;;5083973;28;20019;-60
2022/06/11 00:15:04;;;;;;;6.15;5.75;;;;;;;;;;5081058;28;20066;-58
2022/06/11 00:17:30;;;;;;;6.25;5.70;;;;;;;;;;5079218;28;20058;-58
2022/06/11 00:19:55;;;;;;;6.90;6.30;;;;;;;;;;5079148;28;20485;-58
2022/06/11 00:22:22;;;;;;;7.60;5.57;;;;;;;;;;5074567;28;20191;-58
2022/06/11 00:24:48;;;;;;;8.75;6.32;;;;;;;;;;5079587;28;20063;-58
2022/06/11 00:27:14;;;;;;;7.10;6.50;;;;;;;;;;5081220;28;20024;-59
2022/06/11 00:29:39;;;;;;;6.93;6.32;;;;;;;;;;5083745;28;20438;-55
2022/06/11 00:32:06;;;;;;;6.20;5.72;;;;;;;;;;5080707;28;20056;-58
2022/06/11 00:34:32;;;;;;;6.10;5.63;;;;;;;;;;5079695;28;20089;-58
2022/06/11 00:36:58;;;;;;;7.57;6.05;;;;;;;;;;5047101;28;20134;-59
2022/06/11 00:39:25;;;;;;;6.70;5.95;;;;;;;;;;5059576;28;20104;-58
2022/06/11 00:41:53;;;;;;;6.35;5.65;;;;;;;;;;5043474;28;20021;-57
2022/06/11 00:44:18;;;;;;;7.30;5.60;;;;;;;;;;5039114;28;20383;-58
2022/06/11 00:46:43;;;;;;;6.05;5.55;;;;;;;;;;5039329;28;20041;-58
2022/06/11 00:49:18;;;;;;;6.07;5.57;;;;;;;;;;5039685;28;20068;-58
2022/06/11 00:51:43;;;;;;;;;;;;;;;;;;5042289;28;20509;-58
2022/06/11 00:54:13;;;;;;;6.10;5.60;;;;;;;;;;5039636;28;19915;-58
2022/06/11 00:56:41;;;;;;;5.82;5.32;;;;;;;;;;5039412;28;20324;-58
2022/06/11 00:59:09;;;;;;;9.93;5.97;;;;;;;;;;5040066;28;20072;-59
2022/06/11 01:01:34;;;;;;;7.15;6.55;;;;;;;;;;5039930;28;20203;-58
2022/06/11 01:04:01;;;;;;;6.20;5.70;;;;;;;;;;5038955;28;20028;-58
2022/06/11 01:06:26;;;;;;;7.93;5.47;;;;;;;;;;5043137;28;20144;-58
2022/06/11 01:08:54;;;;;;;6.25;5.65;;;;;;;;;;5043470;28;20025;-59
2022/06/11 01:11:23;;;;;;;6.00;5.45;;;;;;;;;;5040161;28;20050;-58
2022/06/11 01:14:06;;;;;;;6.07;5.47;;;;;;;;;;5038546;28;20036;-59
2022/06/11 01:16:37;;;;;;;6.00;5.55;;;;;;;;;;5043925;28;20046;-58
2022/06/11 01:19:05;;;;;;;6.22;5.60;;;;;;;;;;5041829;28;20422;-59
2022/06/11 01:21:31;;;;;;;6.63;6.03;;;;;;;;;;5039597;28;20028;-58
2022/06/11 01:24:07;;;;;;;6.13;5.55;;;;;;;;;;5040851;28;20021;-58
2022/06/11 01:26:51;;;;;;;5.57;5.07;;;;;;;;;;5044794;28;20049;-58
2022/06/11 01:29:25;;;;;;;6.40;5.80;;;;;;;;;;5039936;28;20258;-58
2022/06/11 01:31:59;;;;;;;8.90;6.13;;;;;;;;;;5039590;28;20021;-58
2022/06/11 01:34:27;;;;;;;7.43;5.45;;;;;;;;;;5043615;28;20087;-58
2022/06/11 01:36:55;;;;;;;5.65;5.13;;;;;;;;;;5063252;28;20468;-59
2022/06/11 01:39:30;;;;;;;6.03;5.53;;;;;;;;;;5078514;28;20056;-58
2022/06/11 01:41:59;;;;;;;5.95;5.45;;;;;;;;;;5079442;28;20035;-58
2022/06/11 01:44:27;;;;;;;6.07;5.47;;;;;;;;;;5083695;28;20028;-58
2022/06/11 01:46:53;;;;;;;6.43;5.93;;;;;;;;;;5082030;28;20068;-58
2022/06/11 01:49:21;;;;;;;6.60;5.88;;;;;;;;;;5078749;28;20042;-58
2022/06/11 01:51:46;;;;;;;6.22;5.72;;;;;;;;;;5079260;28;20024;-59
2022/06/11 01:54:15;;;;;;;6.90;6.20;;;;;;;;;;5081501;28;20034;-58
2022/06/11 01:57:03;;;;;;;7.15;5.88;;;;;;;;;;5081894;28;20024;-58
2022/06/11 01:59:40;;;;;;;7.45;5.97;;;;;;;;;;4989497;28;20456;-58
2022/06/11 02:02:12;;;;;;;7.50;6.03;;;;;;;;;;4990298;28;20565;-58
2022/06/11 02:04:43;;;;;;;6.72;6.13;;;;;;;;;;4990464;28;20049;-57
2022/06/11 02:07:20;;;;;;;7.15;5.68;;;;;;;;;;4989173;28;20088;-59
2022/06/11 02:10:03;;;;;;;7.47;6.03;;;;;;;;;;4988633;28;20080;-57
2022/06/11 02:12:36;;;;;;;6.18;5.57;;;;;;;;;;4989777;28;20033;-57
2022/06/11 02:15:22;;;;;;;6.50;5.82;;;;;;;;;;4993078;28;20085;-60
2022/06/11 02:17:49;;;;;;;5.55;5.05;;;;;;;;;;4990562;28;20156;-60
2022/06/11 02:20:20;;;;;;;5.75;5.25;;;;;;;;;;4991195;28;20412;-58
2022/06/11 02:22:55;;;;;;;5.93;5.43;;;;;;;;;;4993868;28;20084;-59
2022/06/11 02:25:20;;;;;;;5.88;5.40;;;;;;;;;;4992352;28;20430;-60
2022/06/11 02:27:47;;;;;;;6.32;5.72;;;;;;;;;;4988535;28;20053;-60
2022/06/11 02:30:14;;;;;;;5.47;5.00;;;;;;;;;;4988790;28;20157;-59
2022/06/11 02:32:40;;;;;;;5.55;5.05;;;;;;;;;;4991853;28;20070;-59
2022/06/11 02:35:08;;;;;;;6.38;5.80;;;;;;;;;;4991606;28;20666;-59
2022/06/11 02:37:37;;;;;;;7.97;5.05;;;;;;;;;;5070933;28;20047;-57
2022/06/11 02:40:11;;;;;;;5.55;5.15;;;;;;;;;;5083417;28;20043;-58
2022/06/11 02:42:37;;;;;;;5.27;4.77;;;;;;;;;;5086819;28;20561;-57
2022/06/11 02:45:02;;;;;;;6.18;5.50;;;;;;;;;;5083803;28;20253;-60
2022/06/11 02:47:28;;;;;;;5.80;5.25;;;;;;;;;;5081977;28;20028;-60
2022/06/11 02:49:54;;;;;;;9.15;6.50;;;;;;;;;;5083799;28;20020;-59
2022/06/11 02:52:20;;;;;;;6.32;5.80;;;;;;;;;;5087091;28;20042;-57
2022/06/11 02:54:49;;;;;;;5.57;4.97;;;;;;;;;;5082604;28;20024;-58
2022/06/11 02:57:15;;;;;;;8.25;5.30;;;;;;;;;;5081735;28;20552;-57
2022/06/11 02:59:42;;;;;;;7.10;6.50;;;;;;;;;;5086661;28;20024;-57
2022/06/11 03:02:08;;;;;;;7.20;5.40;;;;;;;;;;5086082;28;20089;-59
2022/06/11 03:04:33;;;;;;;5.80;5.30;;;;;;;;;;5081578;28;20012;-59
2022/06/11 03:07:00;;;;;;;6.80;5.60;;;;;;;;;;5083196;28;20028;-60
2022/06/11 03:09:26;;;;;;;8.23;5.38;;;;;;;;;;5087068;28;20020;-58
2022/06/11 03:11:51;;;;;;;4.95;4.55;;;;;;;;;;5085203;28;20389;-57
2022/06/11 03:14:17;;;;;;;6.60;6.07;;;;;;;;;;5081963;28;20028;-58
2022/06/11 03:16:42;;;;;;;5.95;5.45;;;;;;;;;;5083505;28;20024;-58
2022/06/11 03:19:08;;;;;;;6.35;5.18;;;;;;;;;;5085709;28;20020;-60
2022/06/11 03:21:34;;;;;;;5.85;5.28;;;;;;;;;;5084032;28;20503;-59
2022/06/11 03:23:59;;;;;;;6.13;5.53;;;;;;;;;;5081851;28;20050;-59
2022/06/11 03:26:24;;;;;;;5.07;4.57;;;;;;;;;;5081352;28;20028;-59
2022/06/11 03:28:51;;;;;;;5.80;5.35;;;;;;;;;;5084485;28;20035;-59
2022/06/11 03:31:16;;;;;;;5.80;5.18;;;;;;;;;;5084451;28;20457;-59
2022/06/11 03:33:41;;;;;;;5.72;5.13;;;;;;;;;;5081275;28;20109;-59
2022/06/11 03:36:09;;;;;;;6.95;5.40;;;;;;;;;;5080977;28;20143;-59
2022/06/11 03:38:35;;;;;;;6.15;5.55;;;;;;;;;;5080747;28;20043;-59
2022/06/11 03:41:00;;;;;;;5.78;5.22;;;;;;;;;;5081641;28;20024;-60
2022/06/11 03:43:26;;;;;;;6.03;5.00;;;;;;;;;;5081222;28;20016;-58
2022/06/11 03:45:52;;;;;;;5.15;4.75;;;;;;;;;;5085084;28;20106;-59
2022/06/11 03:48:18;;;;;;;6.10;5.60;;;;;;;;;;5084984;28;20386;-59
2022/06/11 03:50:44;;;;;;;6.90;5.28;;;;;;;;;;5081693;28;20107;-59
2022/06/11 03:53:10;;;;;;;6.10;5.50;;;;;;;;;;5080870;28;20032;-59
2022/06/11 03:55:35;;;;;;;5.93;5.20;;;;;;;;;;5084298;28;20606;-59
2022/06/11 03:58:01;;;;;;;5.45;5.05;;;;;;;;;;5081228;28;20039;-59
2022/06/11 04:03:12;;;;;;;5.40;5.00;;;;;;;;;;5082204;28;20492;-59
2022/06/11 04:05:39;;;;;;;6.10;5.60;;;;;;;;;;5085902;28;20031;-59
2022/06/11 04:08:04;;;;;;;5.80;5.30;;;;;;;;;;5085148;28;20024;-59
2022/06/11 04:10:30;;;;;;;7.18;5.18;;;;;;;;;;5080400;28;20435;-59
2022/06/11 04:12:55;;;;;;;5.07;4.68;;;;;;;;;;5081672;28;20035;-58
2022/06/11 04:15:20;;;;;;;4.60;4.30;;;;;;;;;;5084967;28;20109;-59
2022/06/11 04:17:46;;;;;;;4.75;4.35;;;;;;;;;;5079222;28;20040;-59
2022/06/11 04:20:12;;;;;;;7.55;4.95;;;;;;;;;;5080596;28;20020;-59
2022/06/11 04:22:38;;;;;;;6.88;4.72;;;;;;;;;;5080732;28;20442;-59
2022/06/11 04:25:04;;;;;;;8.38;4.68;;;;;;;;;;5080254;28;20032;-59
2022/06/11 04:27:29;;;;;;;4.53;4.13;;;;;;;;;;5079742;28;20641;-59
2022/06/11 04:29:55;;;;;;;5.43;4.95;;;;;;;;;;5080924;28;20036;-59
2022/06/11 04:32:21;;;;;;;6.97;4.90;;;;;;;;;;5079768;28;20024;-59
2022/06/11 04:34:47;;;;;;;5.45;5.00;;;;;;;;;;5080453;28;20321;-59
2022/06/11 04:37:13;;;;;;;5.47;5.03;;;;;;;;;;5045939;28;20100;-59
2022/06/11 04:39:41;;;;;;;6.28;4.47;;;;;;;;;;5039191;28;20067;-59
2022/06/11 04:42:06;;;;;;;4.93;4.50;;;;;;;;;;5042637;28;20025;-59
2022/06/11 04:44:32;;;;;;;5.80;4.82;;;;;;;;;;5040871;28;20028;-59
2022/06/11 04:46:57;;;;;;;4.97;4.55;;;;;;;;;;5039494;28;20454;-59
2022/06/11 04:49:22;;;;;;;5.75;4.97;;;;;;;;;;5039721;28;20490;-59
2022/06/11 04:51:47;;;;;;;4.95;4.35;;;;;;;;;;5042886;28;20305;-59
2022/06/11 04:54:13;;;;;;;5.35;3.72;;;;;;;;;;5039398;28;20025;-59
2022/06/11 04:56:38;;;;;;;4.60;4.25;;;;;;;;;;5039980;28;20475;-59
2022/06/11 04:59:03;;;;;;;4.35;4.03;;;;;;;;;;5039608;28;20174;-59
2022/06/11 05:01:29;;;;;;;4.60;4.30;;;;;;;;;;5044147;28;20032;-59
2022/06/11 05:03:55;;;;;;;5.03;4.55;;;;;;;;;;5043143;28;20033;-59
2022/06/11 05:06:21;;;;;;;4.50;4.20;;;;;;;;;;5040562;28;20021;-59
2022/06/11 05:08:46;;;;;;;7.90;4.72;;;;;;;;;;5038788;28;20024;-59
2022/06/11 05:11:12;;;;;;;4.72;4.15;;;;;;;;;;5038685;28;20037;-59
2022/06/11 05:13:37;;;;;;;5.32;4.68;;;;;;;;;;5038426;28;20017;-59
2022/06/11 05:16:03;;;;;;;4.90;4.40;;;;;;;;;;5039663;28;20478;-59
2022/06/11 05:18:29;;;;;;;4.63;4.18;;;;;;;;;;5038216;28;20025;-59
2022/06/11 05:20:54;;;;;;;4.55;4.15;;;;;;;;;;5039170;28;20040;-59
2022/06/11 05:23:20;;;;;;;6.03;4.38;;;;;;;;;;5040614;28;20372;-60
2022/06/11 05:25:46;;;;;;;5.38;4.88;;;;;;;;;;5039786;28;20027;-59
2022/06/11 05:28:14;;;;;;;4.50;4.13;;;;;;;;;;5038807;28;20024;-60
2022/06/11 05:30:41;;;;;;;4.03;3.72;;;;;;;;;;5039314;28;20956;-60
2022/06/11 05:33:07;;;;;;;5.03;4.05;;;;;;;;;;5041501;28;20481;-60
2022/06/11 05:35:33;;;;;;;4.63;3.78;;;;;;;;;;5039417;28;20070;-58
2022/06/11 05:38:00;;;;;;;4.10;3.70;;;;;;;;;;5078223;28;20604;-59
2022/06/11 05:40:29;;;;;;;4.20;3.80;;;;;;;;;;5084100;28;20534;-59
2022/06/11 05:42:54;;;;;;;4.13;3.72;;;;;;;;;;5080880;28;20382;-60
2022/06/11 05:45:22;;;;;;;4.32;4.00;;;;;;;;;;5079145;28;20024;-59
2022/06/11 05:47:48;;;;;;;4.50;3.90;;;;;;;;;;5081691;28;20115;-59
2022/06/11 05:50:15;;;;;;;4.32;3.95;;;;;;;;;;5083545;28;20035;-59
2022/06/11 05:52:45;;;;;;;5.13;3.90;;;;;;;;;;5080749;28;20028;-59
2022/06/11 05:55:11;;;;;;;4.22;3.88;;;;;;;;;;5078809;28;20035;-59
2022/06/11 05:57:36;;;;;;;4.38;3.65;;;;;;;;;;5082445;28;20032;-58
2022/06/11 06:00:04;;;;;;;4.47;4.07;;;;;;;;;;5083120;28;20016;-61
2022/06/11 06:02:29;;;;;;;3.83;3.53;;;;;;;;;;5079658;28;20019;-58
2022/06/11 06:04:55;;;;;;;3.95;3.47;;;;;;;;;;5077819;28;20024;-59
2022/06/11 06:07:20;;;;;;;4.22;3.83;;;;;;;;;;5078544;28;20067;-59
2022/06/11 06:09:47;;;;;;;4.80;3.80;;;;;;;;;;5059567;28;20059;-59
2022/06/11 06:12:16;;;;;;;5.65;3.92;;;;;;;;;;5079040;28;20487;-59
2022/06/11 06:14:41;;;;;;;4.30;3.88;;;;;;;;;;5057502;28;20413;-58
2022/06/11 06:17:06;;;;;;;4.85;4.35;;;;;;;;;;5087662;28;20089;-60
2022/06/11 06:19:31;;;;;;;6.47;3.50;;;;;;;;;;5085836;28;20074;-59
2022/06/11 06:21:57;;;;;;;4.15;3.45;;;;;;;;;;5081728;28;20031;-58
2022/06/11 06:24:22;;;;;;;4.50;3.63;;;;;;;;;;5081590;28;20020;-58
2022/06/11 06:26:47;;;;;;;7.60;3.65;;;;;;;;;;5081853;28;20032;-58
2022/06/11 06:29:14;;;;;;;4.15;3.70;;;;;;;;;;5084862;28;20197;-59
2022/06/11 06:31:39;;;;;;;4.13;3.72;;;;;;;;;;5081232;28;20024;-59
2022/06/11 06:34:05;;;;;;;3.88;3.35;;;;;;;;;;5084346;28;20019;-60
2022/06/11 06:36:31;;;;;;;4.28;3.72;;;;;;;;;;5086168;28;20044;-60
2022/06/11 06:38:57;;;;;;;5.30;3.55;;;;;;;;;;5056065;28;20393;-59
2022/06/11 06:41:23;;;;;;;3.70;3.40;;;;;;;;;;5063039;28;20357;-60
2022/06/11 06:43:48;;;;;;;4.03;3.58;;;;;;;;;;5081895;28;20028;-59
2022/06/11 06:46:14;;;;;;;11.13;4.50;;;;;;;;;;5084514;28;20019;-60
2022/06/11 06:48:39;;;;;;;3.97;3.50;;;;;;;;;;5083178;28;20450;-60
2022/06/11 06:51:05;;;;;;;5.25;3.33;;;;;;;;;;5080742;28;20077;-60
2022/06/11 06:53:30;;;;;;;4.72;3.72;;;;;;;;;;5081330;28;20077;-59
2022/06/11 06:55:56;;;;;;;5.00;3.50;;;;;;;;;;5081172;28;20024;-58
2022/06/11 06:58:22;;;;;;;6.93;4.03;;;;;;;;;;5080829;28;20047;-59
2022/06/11 07:00:48;;;;;;;3.50;3.20;;;;;;;;;;5081101;28;20035;-59
2022/06/11 07:03:14;;;;;;;5.28;3.20;;;;;;;;;;5081082;28;20106;-59
2022/06/11 07:05:39;;;;;;;3.72;3.25;;;;;;;;;;5081536;28;20130;-58
2022/06/11 07:08:06;;;;;;;7.28;3.33;;;;;;;;;;5080251;28;20059;-60
2022/06/11 07:10:31;;;;;;;4.30;3.13;;;;;;;;;;5081268;28;20012;-60
2022/06/11 07:12:57;;;;;;;3.80;3.30;;;;;;;;;;5086501;28;20039;-59
2022/06/11 07:15:22;;;;;;;3.47;3.17;;;;;;;;;;5085652;28;20020;-60
2022/06/11 07:17:52;;;;;;;4.20;3.35;;;;;;;;;;5080401;28;20071;-60
2022/06/11 07:20:19;;;;;;;4.75;3.00;;;;;;;;;;5080735;28;20023;-59
2022/06/11 07:22:47;;;;;;;3.65;3.38;;;;;;;;;;5067486;28;20436;-60
2022/06/11 07:25:12;;;;;;;5.47;3.78;;;;;;;;;;5084281;28;20463;-60
2022/06/11 07:27:40;;;;;;;3.63;3.33;;;;;;;;;;5080047;28;20028;-61
2022/06/11 07:30:15;;;;;;;3.20;2.72;;;;;;;;;;5084475;28;20088;-59
2022/06/11 07:32:42;;;;;;;3.17;2.97;;;;;;;;;;5087810;28;20031;-63
2022/06/11 07:35:11;;;;;;;3.33;3.03;;;;;;;;;;5083299;28;20028;-60
2022/06/11 07:37:37;;;;;;;3.80;3.10;;;;;;;;;;5079700;28;20055;-60
2022/06/11 07:40:03;;;;;;;2.90;2.70;;;;;;;;;;5063684;28;20101;-59
2022/06/11 07:42:29;;;;;;;3.35;3.03;;;;;;;;;;5084893;28;20019;-60
2022/06/11 07:44:54;;;;;;;3.67;3.35;;;;;;;;;;5082113;28;20039;-60
2022/06/11 07:47:53;;;;;;;4.68;3.55;;;;;;;;;;5061627;28;20089;-60
2022/06/11 07:50:04;;;;;;;;;;;;;;;;;;5080218;28;20438;-60
2022/06/11 07:52:30;;;;;;;3.42;3.13;;;;;;;;;;5079775;28;19914;-60
2022/06/11 07:54:55;;;;;;;4.30;3.60;;;;;;;;;;5081806;28;20028;-60
2022/06/11 07:57:20;;;;;;;4.38;3.65;;;;;;;;;;5079106;28;20715;-60
2022/06/11 07:59:46;;;;;;;4.25;3.67;;;;;;;;;;5083700;28;20020;-60
2022/06/11 08:02:11;;;;;;;3.83;3.38;;;;;;;;;;5079800;28;20028;-60
2022/06/11 08:04:36;;;;;;;3.75;3.47;;;;;;;;;;5079032;28;20027;-59
2022/06/11 08:07:02;;;;;;;3.45;3.15;;;;;;;;;;5078896;28;20470;-60
2022/06/11 08:09:27;;;;;;;3.30;3.00;;;;;;;;;;5082873;28;20455;-60
2022/06/11 08:11:52;;;;;;;3.45;3.15;;;;;;;;;;5083712;28;20045;-59
2022/06/11 08:14:17;;;;;;;3.50;3.20;;;;;;;;;;5079016;28;20012;-59
2022/06/11 08:16:43;;;;;;;2.85;2.72;;;;;;;;;;5081292;28;20043;-60
2022/06/11 08:19:09;;;;;;;3.22;2.92;;;;;;;;;;5085299;28;20036;-59
2022/06/11 08:21:34;;;;;;;4.95;3.22;;;;;;;;;;5084439;28;20051;-61
2022/06/11 08:23:59;;;;;;;6.10;3.25;;;;;;;;;;5085083;28;20052;-59
2022/06/11 08:26:24;;;;;;;6.22;3.60;;;;;;;;;;5067096;28;20405;-59
2022/06/11 08:28:50;;;;;;;3.08;2.83;;;;;;;;;;5060854;28;20028;-60
2022/06/11 08:31:15;;;;;;;4.35;3.30;;;;;;;;;;5080211;28;20491;-59
2022/06/11 08:33:40;;;;;;;5.13;3.50;;;;;;;;;;5063476;28;20491;-59
2022/06/11 08:36:06;;;;;;;5.45;3.00;;;;;;;;;;5083466;28;20409;-59
2022/06/11 08:38:31;;;;;;;5.18;3.65;;;;;;;;;;5083879;28;20312;-60
2022/06/11 08:40:57;;;;;;;4.20;3.22;;;;;;;;;;5063642;28;20049;-59
2022/06/11 08:43:31;;;;;;;3.47;2.85;;;;;;;;;;5063480;28;20020;-59
2022/06/11 08:46:02;;;;;;;6.68;3.30;;;;;;;;;;5083967;28;20015;-60
2022/06/11 08:48:42;;;;;;;3.70;3.40;;;;;;;;;;5083669;28;20457;-61
2022/06/11 08:51:13;;;;;;;4.50;3.60;;;;;;;;;;5080889;28;20016;-60
2022/06/11 08:53:39;;;;;;;3.33;3.13;;;;;;;;;;5080008;28;20084;-60
2022/06/11 08:56:06;;;;;;;5.07;3.85;;;;;;;;;;5079433;28;20031;-60
2022/06/11 08:58:40;;;;;;;4.00;3.65;;;;;;;;;;5060296;28;20035;-61
2022/06/11 09:01:11;;;;;;;3.22;3.00;;;;;;;;;;5079096;28;20326;-61
2022/06/11 09:03:59;;;;;;;4.05;3.53;;;;;;;;;;5077841;28;20103;-62
2022/06/11 09:06:38;;;;;;;5.53;3.35;;;;;;;;;;4996414;28;20034;-62
2022/06/11 09:09:03;;;;;;;4.38;3.22;;;;;;;;;;4998570;28;20120;-63
2022/06/11 09:11:47;;;;;;;3.38;2.85;;;;;;;;;;4998933;28;20066;-62
2022/06/11 09:14:12;;;;;;;3.55;2.92;;;;;;;;;;4979762;28;20506;-62
2022/06/11 09:16:37;;;;;;;3.60;3.00;;;;;;;;;;5013188;28;20124;-61
2022/06/11 09:19:02;;;;;;;3.53;3.22;;;;;;;;;;4999077;28;20034;-61
2022/06/11 09:21:36;;;;;;;4.05;3.65;;;;;;;;;;5000990;28;20554;-63
2022/06/11 09:24:02;;;;;;;7.27;3.57;;;;;;;;;;4966546;28;20025;-67
2022/06/11 09:26:27;;;;;;;3.40;2.97;;;;;;;;;;4996665;28;20544;-65
2022/06/11 09:29:11;;;;;;;4.45;3.80;;;;;;;;;;4999781;28;20196;-65
2022/06/11 09:31:39;;;;;;;3.15;2.95;;;;;;;;;;4999147;28;20065;-64
2022/06/11 09:34:08;;;;;;;5.13;3.15;;;;;;;;;;4996388;28;20021;-64
2022/06/11 09:36:52;;;;;;;4.53;3.08;;;;;;;;;;4995975;28;20106;-62
2022/06/11 09:39:33;;;;;;;5.70;3.83;;;;;;;;;;4997568;28;20036;-63
2022/06/11 09:42:10;;;;;;;3.28;2.97;;;;;;;;;;4998772;28;20613;-62
2022/06/11 09:44:52;;;;;;;6.60;3.20;;;;;;;;;;5074736;28;20479;-63
2022/06/11 09:47:44;;;;;;;4.10;3.50;;;;;;;;;;5078067;28;20334;-63
2022/06/11 09:50:15;;;;;;;3.28;2.97;;;;;;;;;;5074377;28;20048;-65
2022/06/11 09:52:50;;;;;;;3.80;3.58;;;;;;;;;;5078729;28;20024;-64
2022/06/11 09:55:18;;;;;;;6.40;3.40;;;;;;;;;;5078350;28;20028;-71
2022/06/11 09:58:05;;;;;;;3.97;3.03;;;;;;;;;;5078358;28;20044;-64
2022/06/11 10:00:34;;;;;;;5.60;3.58;;;;;;;;;;5059371;28;20117;-65
2022/06/11 10:06:08;;;;;;;3.58;3.17;;;;;;;;;;5082214;28;20080;-60
2022/06/11 10:08:40;;;;;;;5.60;3.45;;;;;;;;;;5082562;28;20054;-60
2022/06/11 10:11:09;;;;;;;4.95;3.55;;;;;;;;;;5078059;28;20585;-59
2022/06/11 10:13:34;;;;;;;3.67;3.22;;;;;;;;;;5077949;28;20062;-60
2022/06/11 10:16:05;;;;;;;4.00;3.30;;;;;;;;;;5082185;28;20631;-60
2022/06/11 10:18:31;;;;;;;5.28;3.78;;;;;;;;;;5082217;28;20032;-59
2022/06/11 10:20:59;;;;;;;3.70;3.40;;;;;;;;;;5078292;28;20432;-59
2022/06/11 10:23:46;;;;;;;3.40;3.10;;;;;;;;;;5078406;28;20387;-59
2022/06/11 10:26:22;;;;;;;3.28;2.90;;;;;;;;;;5078488;28;20024;-59
2022/06/11 10:28:56;;;;;;;3.83;3.53;;;;;;;;;;5079297;28;20445;-59
2022/06/11 10:31:44;;;;;;;3.38;3.08;;;;;;;;;;5078336;28;20055;-60
2022/06/11 10:34:12;;;;;;;3.15;2.70;;;;;;;;;;5077190;28;20024;-59
2022/06/11 10:36:57;;;;;;;4.65;3.10;;;;;;;;;;5078121;28;20090;-59
2022/06/11 10:39:29;;;;;;;3.33;3.03;;;;;;;;;;5060979;28;20044;-60
2022/06/11 10:42:00;;;;;;;7.85;3.50;;;;;;;;;;5077187;28;20039;-59
2022/06/11 10:44:39;;;;;;;5.00;2.80;;;;;;;;;;5078846;28;20028;-60
2022/06/11 10:47:28;;;;;;;4.07;3.67;;;;;;;;;;5063046;28;20024;-59
2022/06/11 10:50:19;;;;;;;4.07;2.97;;;;;;;;;;5064306;28;20348;-60
2022/06/11 10:52:48;;;;;;;5.45;4.63;;;;;;;;;;5073747;28;20032;-60
2022/06/11 10:55:29;;;;;;;6.63;4.53;;;;;;;;;;5079629;28;20020;-60
2022/06/11 10:57:54;;;;;;;3.95;3.63;;;;;;;;;;5078638;28;20340;-60
2022/06/11 11:00:20;;;;;;;3.60;3.40;;;;;;;;;;5059379;28;20028;-60
2022/06/11 11:02:50;;;;;;;5.25;3.38;;;;;;;;;;5081451;28;20437;-60
2022/06/11 11:05:18;;;;;;;3.30;2.60;;;;;;;;;;5085367;28;20051;-60
2022/06/11 11:07:52;;;;;;;3.38;3.17;;;;;;;;;;5064287;28;20519;-60
2022/06/11 11:10:30;;;;;;;5.47;3.45;;;;;;;;;;5081568;28;20521;-60
2022/06/11 11:13:00;;;;;;;6.35;4.35;;;;;;;;;;5063093;28;20678;-60
2022/06/11 11:15:27;;;;;;;6.88;5.97;;;;;;;;;;5087029;28;20062;-60
2022/06/11 11:17:54;;;;;;;5.97;4.60;;;;;;;;;;5062803;28;20036;-60
2022/06/11 11:20:32;;;;;;;9.40;8.43;;;;;;;;;;5081597;28;20031;-60
2022/06/11 11:23:14;;;;;;;4.00;3.00;;;;;;;;;;5082334;28;20024;-60
2022/06/11 11:25:44;;;;;;;6.03;5.45;;;;;;;;;;5084071;28;20024;-60
2022/06/11 11:28:16;;;;;;;6.63;4.63;;;;;;;;;;5081120;28;20393;-60
2022/06/11 11:30:43;;;;;;;3.92;3.47;;;;;;;;;;5063778;28;20172;-60
2022/06/11 11:33:13;;;;;;;3.95;3.58;;;;;;;;;;5085231;28;20107;-60
2022/06/11 11:35:39;;;;;;;5.18;3.17;;;;;;;;;;5083038;28;20500;-60
2022/06/11 11:38:05;;;;;;;4.25;3.63;;;;;;;;;;5081524;28;20059;-60
2022/06/11 11:40:32;;;;;;;4.57;3.05;;;;;;;;;;5082351;28;20035;-60
2022/06/11 11:43:01;;;;;;;2.90;2.70;;;;;;;;;;5085912;28;20069;-60
2022/06/11 11:45:47;;;;;;;3.53;3.30;;;;;;;;;;5081531;28;20034;-60
2022/06/11 11:48:22;;;;;;;3.25;3.05;;;;;;;;;;5081176;28;20039;-60
2022/06/11 11:50:50;;;;;;;4.80;3.25;;;;;;;;;;5085430;28;20028;-60
2022/06/11 11:53:30;;;;;;;4.53;3.08;;;;;;;;;;5066158;28;20024;-60
2022/06/11 11:55:57;;;;;;;3.40;2.65;;;;;;;;;;5080643;28;20169;-60
2022/06/11 11:58:33;;;;;;;3.55;3.17;;;;;;;;;;5083047;28;20089;-60
2022/06/11 12:01:01;;;;;;;8.45;3.22;;;;;;;;;;5086039;28;20059;-60
2022/06/11 12:03:29;;;;;;;4.80;3.58;;;;;;;;;;5082816;28;20020;-60
2022/06/11 12:05:56;;;;;;;3.85;3.55;;;;;;;;;;5080340;28;20182;-60
2022/06/11 12:08:29;;;;;;;4.75;3.70;;;;;;;;;;5084025;28;20024;-59
2022/06/11 12:10:58;;;;;;;3.80;3.50;;;;;;;;;;5086017;28;20024;-60
2022/06/11 12:13:23;;;;;;;2.95;2.75;;;;;;;;;;5081343;28;20356;-60
2022/06/11 12:15:51;;;;;;;3.38;3.08;;;;;;;;;;5082157;28;20507;-60
2022/06/11 12:18:17;;;;;;;8.10;3.47;;;;;;;;;;5084287;28;20034;-60
2022/06/11 12:21:03;;;;;;;3.65;3.15;;;;;;;;;;5085352;28;20055;-60
2022/06/11 12:23:39;;;;;;;3.75;2.63;;;;;;;;;;5080667;28;20251;-60
2022/06/11 12:26:13;;;;;;;5.68;3.45;;;;;;;;;;5081972;28;20028;-60
2022/06/11 12:28:44;;;;;;;3.08;2.97;;;;;;;;;;5067042;28;20030;-60
2022/06/11 12:31:10;;;;;;;4.97;3.42;;;;;;;;;;5083287;28;20040;-60
2022/06/11 12:33:41;;;;;;;4.22;3.08;;;;;;;;;;5080594;28;20062;-60
2022/06/11 12:36:15;;;;;;;3.70;3.40;;;;;;;;;;5083186;28;20393;-61
2022/06/11 12:38:43;;;;;;;3.80;3.50;;;;;;;;;;5084252;28;20312;-60
2022/06/11 12:41:29;;;;;;;3.28;3.13;;;;;;;;;;5082047;28;20028;-60
2022/06/11 12:43:55;;;;;;;3.65;3.35;;;;;;;;;;5079673;28;20024;-60
2022/06/11 12:46:40;;;;;;;3.95;3.50;;;;;;;;;;5080120;28;20081;-60
2022/06/11 12:49:14;;;;;;;4.35;3.95;;;;;;;;;;5082379;28;20538;-60
2022/06/11 12:51:46;;;;;;;3.47;3.22;;;;;;;;;;5079773;28;20016;-60
2022/06/11 12:54:30;;;;;;;4.93;3.58;;;;;;;;;;5080330;28;20077;-60
2022/06/11 12:57:07;;;;;;;3.60;3.30;;;;;;;;;;5079055;28;20036;-60
2022/06/11 12:59:35;;;;;;;6.15;3.30;;;;;;;;;;5080340;28;20168;-60
2022/06/11 13:02:27;;;;;;;3.58;3.13;;;;;;;;;;5081084;28;20060;-60
2022/06/11 13:05:12;;;;;;;4.05;3.28;;;;;;;;;;5076083;28;20157;-60
2022/06/11 13:07:53;;;;;;;3.92;3.55;;;;;;;;;;5063695;28;20529;-60
2022/06/11 13:10:24;;;;;;;4.20;3.83;;;;;;;;;;5080103;28;20027;-60
2022/06/11 13:13:07;;;;;;;3.60;3.30;;;;;;;;;;5079279;28;20389;-60
2022/06/11 13:15:41;;;;;;;3.85;3.10;;;;;;;;;;5080943;28;20043;-62
2022/06/11 13:18:15;;;;;;;3.60;3.40;;;;;;;;;;5079989;28;20259;-61
2022/06/11 13:20:47;;;;;;;3.60;3.40;;;;;;;;;;5079335;28;20047;-60
2022/06/11 13:23:31;;;;;;;3.67;3.47;;;;;;;;;;5079173;28;20020;-60
2022/06/11 13:25:59;;;;;;;3.85;3.63;;;;;;;;;;5080756;28;20042;-60
2022/06/11 13:28:30;;;;;;;4.15;3.58;;;;;;;;;;5080261;28;20028;-60
2022/06/11 13:31:03;;;;;;;6.30;3.63;;;;;;;;;;5079351;28;20040;-60
2022/06/11 13:33:49;;;;;;;3.80;3.60;;;;;;;;;;5079291;28;20588;-60
2022/06/11 13:36:33;;;;;;;4.05;3.72;;;;;;;;;;5077813;28;20185;-62
2022/06/11 13:39:17;;;;;;;3.55;3.17;;;;;;;;;;5079116;28;20036;-61
2022/06/11 13:41:51;;;;;;;3.67;3.45;;;;;;;;;;5081948;28;20016;-62
2022/06/11 13:44:29;;;;;;;3.50;3.30;;;;;;;;;;5085176;28;20116;-63
2022/06/11 13:47:13;;;;;;;3.30;3.03;;;;;;;;;;5078207;28;20216;-60
2022/06/11 13:49:52;;;;;;;3.45;3.25;;;;;;;;;;5079534;28;20024;-61
2022/06/11 13:55:12;;;;;;;4.05;3.55;;;;;;;;;;5060274;28;20032;-61
2022/06/11 13:57:55;;;;;;;3.92;3.60;;;;;;;;;;5079407;28;20099;-61
2022/06/11 14:00:32;;;;;;;3.75;3.38;;;;;;;;;;5079251;28;20430;-62
2022/06/11 14:03:01;;;;;;;5.40;2.80;;;;;;;;;;5078951;28;20020;-59
2022/06/11 14:05:29;;;;;;;2.85;2.75;;;;;;;;;;5079379;28;20793;-62
2022/06/11 14:07:55;;;;;;;5.05;3.58;;;;;;;;;;5078729;28;20028;-60
2022/06/11 14:10:32;;;;;;;4.70;3.50;;;;;;;;;;5083515;28;20077;-61
2022/06/11 14:13:00;;;;;;;3.75;3.50;;;;;;;;;;5082957;28;20414;-61
2022/06/11 14:15:43;;;;;;;3.58;3.17;;;;;;;;;;5051978;28;20062;-61
2022/06/11 14:18:26;;;;;;;4.53;3.35;;;;;;;;;;5078135;28;20060;-61
2022/06/11 14:20:54;;;;;;;3.85;3.55;;;;;;;;;;5078223;28;20032;-61
2022/06/11 14:23:23;;;;;;;9.05;4.38;;;;;;;;;;5082640;28;20454;-59
2022/06/11 14:25:53;;;;;;;4.35;3.92;;;;;;;;;;5084845;28;20462;-60
2022/06/11 14:28:18;;;;;;;3.97;3.50;;;;;;;;;;5081454;28;20028;-61
2022/06/11 14:30:50;;;;;;;3.90;3.60;;;;;;;;;;5080211;28;20436;-61
2022/06/11 14:33:16;;;;;;;3.88;3.53;;;;;;;;;;5078932;28;20062;-60
2022/06/11 14:35:47;;;;;;;3.67;3.38;;;;;;;;;;5080386;28;20024;-60
2022/06/11 14:38:32;;;;;;;3.40;3.08;;;;;;;;;;5085392;28;20677;-60
2022/06/11 14:41:09;;;;;;;3.05;2.85;;;;;;;;;;5085860;28;20100;-60
2022/06/11 14:43:53;;;;;;;3.35;3.13;;;;;;;;;;5081175;28;20568;-60
2022/06/11 14:46:27;;;;;;;3.70;3.40;;;;;;;;;;5081888;28;20030;-61
2022/06/11 14:48:54;;;;;;;4.18;3.72;;;;;;;;;;5084541;28;20039;-61
2022/06/11 14:51:19;;;;;;;4.07;3.10;;;;;;;;;;5086534;28;20121;-61
2022/06/11 14:53:45;;;;;;;5.88;3.72;;;;;;;;;;5082098;28;20646;-59
2022/06/11 14:56:11;;;;;;;4.20;3.90;;;;;;;;;;5083148;28;20028;-60
2022/06/11 14:58:55;;;;;;;3.70;3.40;;;;;;;;;;5081631;28;20105;-60
2022/06/11 15:01:20;;;;;;;3.60;3.33;;;;;;;;;;5082418;28;20028;-60
2022/06/11 15:04:03;;;;;;;4.55;4.10;;;;;;;;;;5082584;28;20508;-59
2022/06/11 15:06:31;;;;;;;3.60;3.40;;;;;;;;;;5084123;28;20020;-60